createdAt,value
2024-03-18T14:01:24.342Z,38.31
2024-03-18T14:03:52.434Z,38.60
2024-03-18T14:06:20.044Z,39.49
2024-03-18T14:08:48.495Z,38.74
2024-03-18T14:11:18.631Z,39.05
2024-03-18T14:20:18.199Z,39.09
2024-03-18T14:22:45.118Z,39.41
2024-03-18T14:25:20.578Z,39.87
2024-03-18T14:27:55.349Z,39.38
2024-03-18T14:30:25.434Z,39.52
2024-03-18T14:32:52.500Z,40.14
2024-03-18T14:35:19.315Z,39.80
2024-03-18T14:37:46.297Z,40.55
2024-03-18T14:40:14.259Z,40.36
2024-03-18T14:42:42.222Z,40.01
2024-03-18T14:45:18.826Z,40.60
2024-03-18T14:47:49.406Z,41.24
2024-03-18T14:50:16.717Z,41.59
2024-03-18T14:52:47.106Z,42.15
2024-03-18T14:55:21.030Z,43.36
2024-03-18T14:57:47.868Z,42.83
2024-03-18T15:00:17.364Z,42.98
2024-03-18T15:02:49.511Z,43.37
2024-03-18T15:05:17.674Z,44.92
2024-03-18T15:07:44.484Z,45.07
2024-03-18T15:10:14.126Z,44.53
2024-03-18T15:16:49.767Z,44.09
2024-03-18T15:19:17.624Z,44.56
2024-03-18T15:21:45.509Z,44.64
2024-03-18T15:24:28.174Z,45.29
2024-03-18T15:27:17.263Z,45.16
2024-03-18T15:29:45.212Z,45.04
2024-03-18T15:32:16.515Z,44.78
2024-03-18T15:34:47.657Z,45.37
2024-03-18T15:37:15.654Z,45.42
2024-03-18T15:39:43.834Z,45.12
2024-03-18T15:42:11.655Z,44.28
2024-03-18T15:44:39.552Z,44.40
2024-03-18T15:47:07.590Z,45.06
2024-03-18T15:49:36.681Z,45.09
2024-03-18T15:52:05.124Z,45.15
2024-03-18T15:54:33.163Z,44.81
2024-03-18T15:57:01.009Z,44.52
2024-03-18T15:59:28.790Z,44.64
2024-03-18T16:01:58.641Z,44.89
2024-03-18T16:04:26.437Z,45.46
2024-03-18T16:06:54.208Z,45.44
2024-03-18T16:09:22.147Z,45.61
2024-03-18T16:11:50.725Z,46.40
2024-03-18T16:14:19.095Z,46.63
2024-03-18T16:16:46.944Z,46.64
2024-03-18T16:19:16.796Z,46.52
2024-03-18T16:21:44.803Z,48.54
2024-03-18T16:24:12.700Z,50.32
2024-03-18T16:26:40.688Z,52.13
2024-03-18T16:29:08.515Z,52.57
2024-03-18T16:31:36.276Z,53.85
2024-03-18T16:34:06.658Z,55.33
2024-03-18T16:36:35.473Z,56.26
2024-03-18T16:39:03.693Z,57.25
2024-03-18T16:41:31.791Z,57.43
2024-03-18T16:43:59.644Z,57.83
2024-03-18T16:46:27.584Z,57.65
2024-03-18T16:48:55.456Z,58.47
2024-03-18T16:51:23.286Z,59.32
2024-03-18T16:53:51.243Z,59.84
2024-03-18T16:56:21.481Z,59.98
2024-03-18T16:58:49.482Z,61.30
2024-03-18T17:01:21.175Z,61.36
2024-03-18T17:03:48.989Z,62.03
2024-03-18T17:06:17.256Z,62.27
2024-03-18T17:08:45.097Z,62.48
2024-03-18T17:11:14.266Z,62.56
2024-03-18T17:13:45.288Z,62.78
2024-03-18T17:16:13.281Z,62.29
2024-03-18T17:18:41.162Z,62.38
2024-03-18T17:21:09.061Z,62.72
2024-03-18T17:23:36.889Z,63.02
2024-03-18T17:26:05.617Z,63.62
2024-03-18T17:28:33.473Z,63.59
2024-03-18T17:31:01.763Z,63.19
2024-03-18T17:33:29.594Z,63.85
2024-03-18T17:36:15.341Z,63.90
2024-03-18T17:38:45.226Z,63.77
2024-03-18T17:41:21.473Z,63.83
2024-03-18T17:43:52.973Z,64.44
2024-03-18T17:46:21.128Z,64.20
2024-03-18T17:48:51.726Z,64.28
2024-03-18T17:51:19.838Z,64.64
2024-03-18T17:53:51.554Z,64.51
2024-03-18T17:56:20.506Z,65.12
2024-03-18T17:58:48.464Z,65.34
2024-03-18T18:01:17.978Z,65.67
2024-03-18T18:03:46.489Z,65.76
2024-03-18T18:06:14.361Z,66.03
2024-03-18T18:08:42.187Z,66.28
2024-03-18T18:11:10.055Z,66.51
2024-03-18T18:13:37.899Z,66.89
2024-03-18T18:16:08.917Z,67.10
2024-03-18T18:18:36.773Z,67.08
2024-03-18T18:21:04.906Z,67.05
2024-03-18T18:23:32.755Z,67.25
2024-03-18T18:26:00.919Z,67.75
2024-03-18T18:28:28.816Z,67.50
2024-03-18T18:30:56.648Z,67.86
2024-03-18T18:33:24.468Z,68.03
2024-03-18T18:35:52.398Z,67.73
2024-03-18T18:38:21.106Z,67.78
2024-03-18T18:40:48.943Z,68.11
2024-03-18T18:43:16.740Z,68.01
2024-03-18T18:45:44.614Z,68.02
2024-03-18T18:48:12.624Z,68.00
2024-03-18T18:50:40.444Z,68.28
2024-03-18T18:53:11.495Z,68.55
2024-03-18T18:55:39.354Z,68.66
2024-03-18T18:58:08.017Z,68.79
2024-03-18T19:00:37.267Z,68.56
2024-03-18T19:03:06.134Z,68.48
2024-03-18T19:05:35.638Z,68.51
2024-03-18T19:08:05.352Z,68.74
2024-03-18T19:10:33.209Z,68.64
2024-03-18T19:13:01.041Z,68.35
2024-03-18T19:15:28.939Z,68.43
2024-03-18T19:17:57.133Z,68.39
2024-03-18T19:20:24.937Z,68.66
2024-03-18T19:22:52.953Z,68.77
2024-03-18T19:25:22.171Z,68.28
2024-03-18T19:27:51.452Z,68.20
2024-03-18T19:30:19.247Z,67.85
2024-03-18T19:32:47.087Z,67.89
2024-03-18T19:35:14.973Z,67.86
2024-03-18T19:37:42.990Z,67.86
2024-03-18T19:40:13.455Z,67.68
2024-03-18T19:42:41.386Z,67.48
2024-03-18T19:45:10.958Z,67.37
2024-03-18T19:47:39.407Z,67.11
2024-03-18T19:50:10.458Z,67.23
2024-03-18T19:52:38.371Z,67.12
2024-03-18T19:55:07.605Z,67.07
2024-03-18T19:57:37.022Z,67.01
2024-03-18T20:00:07.536Z,67.15
2024-03-18T20:02:41.336Z,66.92
2024-03-18T20:05:12.392Z,67.13
2024-03-18T20:07:41.057Z,67.36
2024-03-18T20:10:10.710Z,67.57
2024-03-18T20:12:48.265Z,67.70
2024-03-18T20:15:17.578Z,67.63
2024-03-18T20:17:45.945Z,67.84
2024-03-18T20:20:14.110Z,67.94
2024-03-18T20:22:42.865Z,68.04
2024-03-18T20:25:13.054Z,68.17
2024-03-18T20:27:44.312Z,68.23
2024-03-18T20:30:16.470Z,68.14
2024-03-18T20:32:45.059Z,68.31
2024-03-18T20:35:12.892Z,68.72
2024-03-18T20:37:45.170Z,68.63
2024-03-18T20:40:13.526Z,68.97
2024-03-18T20:42:42.416Z,68.90
2024-03-18T20:45:14.095Z,69.05
2024-03-18T20:47:42.982Z,69.24
2024-03-18T20:50:12.384Z,69.40
2024-03-18T20:52:41.213Z,69.33
2024-03-18T20:55:13.283Z,69.48
2024-03-18T20:57:44.529Z,69.45
2024-03-18T21:00:15.648Z,69.30
2024-03-18T21:02:44.749Z,69.60
2024-03-18T21:05:15.873Z,69.99
2024-03-18T21:07:47.797Z,70.26
2024-03-18T21:10:17.024Z,70.09
2024-03-18T21:12:48.988Z,69.65
2024-03-18T21:15:17.934Z,70.43
2024-03-18T21:17:46.454Z,69.84
2024-03-18T21:20:18.206Z,69.97
2024-03-18T21:22:46.888Z,69.86
2024-03-18T21:25:16.226Z,69.80
2024-03-18T21:27:50.807Z,70.32
2024-03-18T21:30:19.223Z,70.19
2024-03-18T21:32:47.035Z,70.50
2024-03-18T21:35:14.872Z,70.84
2024-03-18T21:37:43.227Z,70.72
2024-03-18T21:40:11.685Z,71.31
2024-03-18T21:42:40.130Z,71.54
2024-03-18T21:45:09.477Z,71.09
2024-03-18T21:47:41.027Z,71.04
2024-03-18T21:50:09.577Z,71.29
2024-03-18T21:52:40.263Z,71.40
2024-03-18T21:55:08.125Z,71.10
2024-03-18T21:57:37.631Z,71.23
2024-03-18T22:00:07.576Z,71.08
2024-03-18T22:02:37.920Z,71.04
2024-03-18T22:05:06.015Z,71.21
2024-03-18T22:07:34.792Z,71.15
2024-03-18T22:10:02.787Z,71.33
2024-03-18T22:12:30.761Z,71.07
2024-03-18T22:14:58.652Z,71.31
2024-03-18T22:17:27.997Z,71.33
2024-03-18T22:19:55.811Z,71.34
2024-03-18T22:22:23.660Z,71.16
2024-03-18T22:24:51.493Z,70.98
2024-03-18T22:27:19.466Z,71.03
2024-03-18T22:29:47.451Z,71.04
2024-03-18T22:32:15.298Z,71.29
2024-03-18T22:34:43.282Z,71.00
2024-03-18T22:37:11.127Z,71.00
2024-03-18T22:39:39.015Z,71.07
2024-03-18T22:42:08.794Z,71.21
2024-03-18T22:44:36.690Z,71.56
2024-03-18T22:47:04.915Z,71.50
2024-03-18T22:49:33.039Z,71.57
2024-03-18T22:52:01.196Z,71.38
2024-03-18T22:54:28.991Z,71.33
2024-03-18T22:56:56.854Z,71.58
2024-03-18T22:59:25.016Z,72.06
2024-03-18T23:01:53.034Z,71.79
2024-03-18T23:04:20.875Z,71.65
2024-03-18T23:06:48.867Z,71.49
2024-03-18T23:09:18.062Z,71.67
2024-03-18T23:11:45.921Z,71.52
2024-03-18T23:14:14.167Z,71.91
2024-03-18T23:16:42.337Z,71.58
2024-03-18T23:19:10.127Z,71.65
2024-03-18T23:21:38.439Z,71.95
2024-03-18T23:24:07.388Z,71.67
2024-03-18T23:26:35.259Z,71.56
2024-03-18T23:29:04.154Z,71.84
2024-03-18T23:31:31.976Z,71.54
2024-03-18T23:34:00.062Z,71.55
2024-03-18T23:36:28.452Z,71.66
2024-03-18T23:38:56.299Z,71.27
2024-03-18T23:41:24.172Z,71.40
2024-03-18T23:43:52.048Z,71.49
2024-03-18T23:46:19.929Z,71.54
2024-03-18T23:48:47.735Z,71.69
2024-03-18T23:51:15.674Z,71.67
2024-03-18T23:53:48.056Z,71.71
2024-03-18T23:56:17.924Z,71.65
2024-03-18T23:58:45.754Z,71.91
